sensor_id;sensor_type;location;lat;lon;timestamp;P1;durP1;ratioP1;P2;durP2;ratioP2
43363;SDS011;40636;52.424;-1.948;2023-06-22T00:00:00;7.72;;;4.18;;
43363;SDS011;40636;52.424;-1.948;2023-06-22T00:02:27;7.95;;;4.80;;
43363;SDS011;40636;52.424;-1.948;2023-06-22T00:04:54;6.53;;;4.43;;
43363;SDS011;40636;52.424;-1.948;2023-06-22T00:07:21;6.63;;;3.80;;
43363;SDS011;40636;52.424;-1.948;2023-06-22T00:09:48;6.80;;;4.28;;
43363;SDS011;40636;52.424;-1.948;2023-06-22T00:12:14;8.77;;;3.75;;
43363;SDS011;40636;52.424;-1.948;2023-06-22T00:14:41;6.93;;;5.25;;
43363;SDS011;40636;52.424;-1.948;2023-06-22T00:17:08;8.25;;;5.00;;
43363;SDS011;40636;52.424;-1.948;2023-06-22T00:19:34;6.25;;;4.32;;
43363;SDS011;40636;52.424;-1.948;2023-06-22T00:22:02;6.93;;;4.60;;
43363;SDS011;40636;52.424;-1.948;2023-06-22T00:24:30;6.00;;;3.88;;
43363;SDS011;40636;52.424;-1.948;2023-06-22T00:26:56;5.82;;;4.25;;
43363;SDS011;40636;52.424;-1.948;2023-06-22T00:29:23;10.40;;;5.03;;
43363;SDS011;40636;52.424;-1.948;2023-06-22T00:31:51;7.10;;;4.47;;
43363;SDS011;40636;52.424;-1.948;2023-06-22T00:34:18;8.32;;;4.25;;
43363;SDS011;40636;52.424;-1.948;2023-06-22T00:36:44;8.10;;;3.97;;
43363;SDS011;40636;52.424;-1.948;2023-06-22T00:39:13;6.43;;;4.07;;
43363;SDS011;40636;52.424;-1.948;2023-06-22T00:41:40;7.72;;;4.75;;
43363;SDS011;40636;52.424;-1.948;2023-06-22T00:44:06;6.35;;;3.88;;
43363;SDS011;40636;52.424;-1.948;2023-06-22T00:46:34;11.48;;;5.47;;
43363;SDS011;40636;52.424;-1.948;2023-06-22T00:49:01;7.82;;;4.50;;
43363;SDS011;40636;52.424;-1.948;2023-06-22T00:51:30;5.88;;;4.50;;
43363;SDS011;40636;52.424;-1.948;2023-06-22T00:53:57;7.35;;;4.18;;
43363;SDS011;40636;52.424;-1.948;2023-06-22T00:56:24;6.28;;;4.15;;
43363;SDS011;40636;52.424;-1.948;2023-06-22T00:58:52;8.52;;;4.80;;
43363;SDS011;40636;52.424;-1.948;2023-06-22T01:01:19;11.20;;;4.47;;
43363;SDS011;40636;52.424;-1.948;2023-06-22T01:03:50;7.15;;;4.40;;
43363;SDS011;40636;52.424;-1.948;2023-06-22T01:06:20;7.95;;;4.57;;
43363;SDS011;40636;52.424;-1.948;2023-06-22T01:09:06;7.07;;;4.70;;
43363;SDS011;40636;52.424;-1.948;2023-06-22T01:11:59;7.78;;;4.60;;
43363;SDS011;40636;52.424;-1.948;2023-06-22T01:14:31;6.72;;;3.88;;
43363;SDS011;40636;52.424;-1.948;2023-06-22T01:17:04;6.40;;;4.28;;
43363;SDS011;40636;52.424;-1.948;2023-06-22T01:19:35;7.53;;;4.70;;
43363;SDS011;40636;52.424;-1.948;2023-06-22T01:22:10;7.07;;;3.83;;
43363;SDS011;40636;52.424;-1.948;2023-06-22T01:24:51;9.30;;;3.92;;
43363;SDS011;40636;52.424;-1.948;2023-06-22T01:27:36;9.32;;;4.05;;
43363;SDS011;40636;52.424;-1.948;2023-06-22T01:30:11;6.68;;;3.88;;
43363;SDS011;40636;52.424;-1.948;2023-06-22T01:32:42;5.18;;;3.42;;
43363;SDS011;40636;52.424;-1.948;2023-06-22T01:35:09;6.97;;;3.88;;
43363;SDS011;40636;52.424;-1.948;2023-06-22T01:37:37;5.32;;;3.33;;
43363;SDS011;40636;52.424;-1.948;2023-06-22T01:40:05;6.38;;;4.60;;
43363;SDS011;40636;52.424;-1.948;2023-06-22T01:42:35;5.28;;;3.67;;
43363;SDS011;40636;52.424;-1.948;2023-06-22T01:45:03;5.82;;;3.80;;
43363;SDS011;40636;52.424;-1.948;2023-06-22T01:47:31;6.20;;;3.70;;
43363;SDS011;40636;52.424;-1.948;2023-06-22T01:49:58;5.40;;;4.10;;
43363;SDS011;40636;52.424;-1.948;2023-06-22T01:52:25;7.05;;;3.38;;
43363;SDS011;40636;52.424;-1.948;2023-06-22T01:54:52;6.93;;;3.42;;
43363;SDS011;40636;52.424;-1.948;2023-06-22T01:57:19;4.90;;;3.38;;
43363;SDS011;40636;52.424;-1.948;2023-06-22T02:02:26;5.32;;;3.28;;
43363;SDS011;40636;52.424;-1.948;2023-06-22T02:04:58;6.60;;;3.05;;
43363;SDS011;40636;52.424;-1.948;2023-06-22T02:07:29;4.63;;;3.05;;
43363;SDS011;40636;52.424;-1.948;2023-06-22T02:10:00;7.30;;;3.80;;
43363;SDS011;40636;52.424;-1.948;2023-06-22T02:12:29;4.40;;;3.13;;
43363;SDS011;40636;52.424;-1.948;2023-06-22T02:14:58;5.45;;;3.22;;
43363;SDS011;40636;52.424;-1.948;2023-06-22T02:17:27;4.22;;;3.22;;
43363;SDS011;40636;52.424;-1.948;2023-06-22T02:19:54;7.00;;;3.30;;
43363;SDS011;40636;52.424;-1.948;2023-06-22T02:22:21;9.30;;;3.47;;
43363;SDS011;40636;52.424;-1.948;2023-06-22T02:24:48;6.10;;;3.30;;
43363;SDS011;40636;52.424;-1.948;2023-06-22T02:27:15;5.55;;;2.92;;
43363;SDS011;40636;52.424;-1.948;2023-06-22T02:29:41;5.07;;;3.28;;
43363;SDS011;40636;52.424;-1.948;2023-06-22T02:32:08;5.47;;;3.05;;
43363;SDS011;40636;52.424;-1.948;2023-06-22T02:34:35;4.18;;;2.90;;
43363;SDS011;40636;52.424;-1.948;2023-06-22T02:37:03;6.80;;;3.72;;
43363;SDS011;40636;52.424;-1.948;2023-06-22T02:39:30;5.50;;;3.28;;
43363;SDS011;40636;52.424;-1.948;2023-06-22T02:41:57;4.57;;;3.10;;
43363;SDS011;40636;52.424;-1.948;2023-06-22T02:44:23;4.97;;;3.17;;
43363;SDS011;40636;52.424;-1.948;2023-06-22T02:46:50;4.57;;;3.08;;
43363;SDS011;40636;52.424;-1.948;2023-06-22T02:49:17;4.97;;;3.53;;
43363;SDS011;40636;52.424;-1.948;2023-06-22T02:51:47;5.13;;;3.28;;
43363;SDS011;40636;52.424;-1.948;2023-06-22T02:54:15;4.65;;;3.45;;
43363;SDS011;40636;52.424;-1.948;2023-06-22T02:56:42;8.50;;;3.13;;
43363;SDS011;40636;52.424;-1.948;2023-06-22T02:59:12;6.53;;;3.58;;
43363;SDS011;40636;52.424;-1.948;2023-06-22T03:01:39;5.65;;;3.08;;
43363;SDS011;40636;52.424;-1.948;2023-06-22T03:04:07;9.80;;;3.85;;
43363;SDS011;40636;52.424;-1.948;2023-06-22T03:06:35;5.07;;;3.30;;
43363;SDS011;40636;52.424;-1.948;2023-06-22T03:09:03;8.57;;;3.47;;
43363;SDS011;40636;52.424;-1.948;2023-06-22T03:11:32;5.88;;;3.70;;
43363;SDS011;40636;52.424;-1.948;2023-06-22T03:13:59;7.03;;;3.65;;
43363;SDS011;40636;52.424;-1.948;2023-06-22T03:16:27;4.88;;;3.17;;
43363;SDS011;40636;52.424;-1.948;2023-06-22T03:18:55;5.57;;;3.42;;
43363;SDS011;40636;52.424;-1.948;2023-06-22T03:21:22;7.60;;;3.13;;
43363;SDS011;40636;52.424;-1.948;2023-06-22T03:23:50;6.28;;;3.33;;
43363;SDS011;40636;52.424;-1.948;2023-06-22T03:26:17;6.63;;;3.13;;
43363;SDS011;40636;52.424;-1.948;2023-06-22T03:28:44;7.40;;;4.07;;
43363;SDS011;40636;52.424;-1.948;2023-06-22T03:31:11;5.22;;;3.28;;
43363;SDS011;40636;52.424;-1.948;2023-06-22T03:33:38;5.95;;;3.33;;
43363;SDS011;40636;52.424;-1.948;2023-06-22T03:36:05;5.65;;;3.05;;
43363;SDS011;40636;52.424;-1.948;2023-06-22T03:38:32;5.15;;;3.30;;
43363;SDS011;40636;52.424;-1.948;2023-06-22T03:40:59;6.90;;;3.53;;
43363;SDS011;40636;52.424;-1.948;2023-06-22T03:43:26;9.88;;;3.40;;
43363;SDS011;40636;52.424;-1.948;2023-06-22T03:45:52;4.18;;;2.67;;
43363;SDS011;40636;52.424;-1.948;2023-06-22T03:48:19;10.85;;;3.42;;
43363;SDS011;40636;52.424;-1.948;2023-06-22T03:50:46;4.90;;;3.08;;
43363;SDS011;40636;52.424;-1.948;2023-06-22T03:53:13;5.38;;;3.10;;
43363;SDS011;40636;52.424;-1.948;2023-06-22T03:55:49;8.38;;;3.40;;
43363;SDS011;40636;52.424;-1.948;2023-06-22T03:58:17;4.43;;;3.17;;
43363;SDS011;40636;52.424;-1.948;2023-06-22T04:00:46;7.32;;;4.10;;
43363;SDS011;40636;52.424;-1.948;2023-06-22T04:03:13;5.82;;;2.75;;
43363;SDS011;40636;52.424;-1.948;2023-06-22T04:05:41;3.67;;;2.10;;
43363;SDS011;40636;52.424;-1.948;2023-06-22T04:08:08;4.15;;;2.97;;
43363;SDS011;40636;52.424;-1.948;2023-06-22T04:10:35;5.03;;;2.78;;
43363;SDS011;40636;52.424;-1.948;2023-06-22T04:13:02;7.22;;;4.03;;
43363;SDS011;40636;52.424;-1.948;2023-06-22T04:15:28;4.13;;;2.58;;
43363;SDS011;40636;52.424;-1.948;2023-06-22T04:17:55;5.30;;;2.67;;
43363;SDS011;40636;52.424;-1.948;2023-06-22T04:20:23;4.65;;;2.72;;
43363;SDS011;40636;52.424;-1.948;2023-06-22T04:22:55;4.20;;;2.92;;
43363;SDS011;40636;52.424;-1.948;2023-06-22T04:25:22;6.65;;;3.80;;
43363;SDS011;40636;52.424;-1.948;2023-06-22T04:27:49;5.22;;;3.28;;
43363;SDS011;40636;52.424;-1.948;2023-06-22T04:30:16;4.82;;;2.90;;
43363;SDS011;40636;52.424;-1.948;2023-06-22T04:32:43;6.80;;;3.80;;
43363;SDS011;40636;52.424;-1.948;2023-06-22T04:35:11;6.40;;;2.85;;
43363;SDS011;40636;52.424;-1.948;2023-06-22T04:37:38;5.68;;;3.28;;
43363;SDS011;40636;52.424;-1.948;2023-06-22T04:40:06;4.00;;;2.78;;
43363;SDS011;40636;52.424;-1.948;2023-06-22T04:42:34;6.15;;;3.17;;
43363;SDS011;40636;52.424;-1.948;2023-06-22T04:45:02;4.68;;;3.00;;
43363;SDS011;40636;52.424;-1.948;2023-06-22T04:47:30;7.22;;;3.58;;
43363;SDS011;40636;52.424;-1.948;2023-06-22T04:49:57;7.68;;;3.22;;
43363;SDS011;40636;52.424;-1.948;2023-06-22T04:52:24;8.88;;;3.30;;
43363;SDS011;40636;52.424;-1.948;2023-06-22T04:54:51;7.47;;;3.58;;
43363;SDS011;40636;52.424;-1.948;2023-06-22T04:57:22;5.40;;;3.58;;
43363;SDS011;40636;52.424;-1.948;2023-06-22T04:59:57;6.13;;;3.72;;
43363;SDS011;40636;52.424;-1.948;2023-06-22T05:02:33;8.73;;;4.75;;
43363;SDS011;40636;52.424;-1.948;2023-06-22T05:05:00;10.32;;;4.50;;
43363;SDS011;40636;52.424;-1.948;2023-06-22T05:07:27;5.50;;;3.20;;
43363;SDS011;40636;52.424;-1.948;2023-06-22T05:09:54;7.68;;;3.30;;
43363;SDS011;40636;52.424;-1.948;2023-06-22T05:12:20;10.25;;;4.10;;
43363;SDS011;40636;52.424;-1.948;2023-06-22T05:14:47;11.15;;;4.40;;
43363;SDS011;40636;52.424;-1.948;2023-06-22T05:17:14;9.02;;;4.15;;
43363;SDS011;40636;52.424;-1.948;2023-06-22T05:19:41;6.57;;;3.63;;
43363;SDS011;40636;52.424;-1.948;2023-06-22T05:22:11;9.77;;;4.22;;
43363;SDS011;40636;52.424;-1.948;2023-06-22T05:24:38;9.38;;;3.90;;
43363;SDS011;40636;52.424;-1.948;2023-06-22T05:27:05;8.77;;;3.85;;
43363;SDS011;40636;52.424;-1.948;2023-06-22T05:29:32;8.50;;;4.07;;
43363;SDS011;40636;52.424;-1.948;2023-06-22T05:31:59;8.40;;;4.60;;
43363;SDS011;40636;52.424;-1.948;2023-06-22T05:34:25;7.40;;;3.95;;
43363;SDS011;40636;52.424;-1.948;2023-06-22T05:36:52;7.60;;;4.20;;
43363;SDS011;40636;52.424;-1.948;2023-06-22T05:39:19;8.23;;;4.50;;
43363;SDS011;40636;52.424;-1.948;2023-06-22T05:41:46;7.28;;;4.15;;
43363;SDS011;40636;52.424;-1.948;2023-06-22T05:44:13;8.35;;;4.80;;
43363;SDS011;40636;52.424;-1.948;2023-06-22T05:46:43;10.40;;;4.78;;
43363;SDS011;40636;52.424;-1.948;2023-06-22T05:49:12;9.02;;;4.28;;
43363;SDS011;40636;52.424;-1.948;2023-06-22T05:51:39;8.95;;;4.55;;
43363;SDS011;40636;52.424;-1.948;2023-06-22T05:54:06;8.70;;;5.03;;
43363;SDS011;40636;52.424;-1.948;2023-06-22T05:56:35;7.75;;;5.20;;
43363;SDS011;40636;52.424;-1.948;2023-06-22T05:59:01;8.18;;;5.55;;
43363;SDS011;40636;52.424;-1.948;2023-06-22T06:01:30;12.88;;;6.45;;
43363;SDS011;40636;52.424;-1.948;2023-06-22T06:04:02;8.57;;;5.25;;
43363;SDS011;40636;52.424;-1.948;2023-06-22T06:06:30;9.95;;;5.35;;
43363;SDS011;40636;52.424;-1.948;2023-06-22T06:08:57;11.85;;;5.30;;
43363;SDS011;40636;52.424;-1.948;2023-06-22T06:11:26;14.40;;;5.88;;
43363;SDS011;40636;52.424;-1.948;2023-06-22T06:13:53;9.57;;;5.53;;
43363;SDS011;40636;52.424;-1.948;2023-06-22T06:16:19;11.38;;;6.30;;
43363;SDS011;40636;52.424;-1.948;2023-06-22T06:18:46;9.02;;;6.05;;
43363;SDS011;40636;52.424;-1.948;2023-06-22T06:21:14;16.85;;;6.03;;
43363;SDS011;40636;52.424;-1.948;2023-06-22T06:23:41;12.93;;;5.88;;
43363;SDS011;40636;52.424;-1.948;2023-06-22T06:26:08;10.73;;;5.93;;
43363;SDS011;40636;52.424;-1.948;2023-06-22T06:28:35;9.27;;;5.55;;
43363;SDS011;40636;52.424;-1.948;2023-06-22T06:31:02;7.10;;;5.03;;
43363;SDS011;40636;52.424;-1.948;2023-06-22T06:33:29;10.77;;;6.13;;
43363;SDS011;40636;52.424;-1.948;2023-06-22T06:35:57;12.20;;;5.47;;
43363;SDS011;40636;52.424;-1.948;2023-06-22T06:38:24;8.48;;;5.22;;
43363;SDS011;40636;52.424;-1.948;2023-06-22T06:40:51;9.85;;;5.18;;
43363;SDS011;40636;52.424;-1.948;2023-06-22T06:43:18;7.68;;;5.22;;
43363;SDS011;40636;52.424;-1.948;2023-06-22T06:45:45;10.73;;;5.07;;
43363;SDS011;40636;52.424;-1.948;2023-06-22T06:48:11;9.52;;;5.32;;
43363;SDS011;40636;52.424;-1.948;2023-06-22T06:50:38;12.30;;;5.35;;
43363;SDS011;40636;52.424;-1.948;2023-06-22T06:53:05;11.13;;;5.60;;
43363;SDS011;40636;52.424;-1.948;2023-06-22T06:55:32;11.55;;;5.32;;
43363;SDS011;40636;52.424;-1.948;2023-06-22T06:57:59;9.13;;;5.45;;
43363;SDS011;40636;52.424;-1.948;2023-06-22T07:00:26;7.75;;;4.97;;
43363;SDS011;40636;52.424;-1.948;2023-06-22T07:02:54;6.20;;;4.50;;
43363;SDS011;40636;52.424;-1.948;2023-06-22T07:05:20;7.82;;;4.25;;
43363;SDS011;40636;52.424;-1.948;2023-06-22T07:07:47;8.15;;;5.35;;
43363;SDS011;40636;52.424;-1.948;2023-06-22T07:10:15;13.02;;;4.93;;
43363;SDS011;40636;52.424;-1.948;2023-06-22T07:12:42;6.65;;;4.93;;
43363;SDS011;40636;52.424;-1.948;2023-06-22T07:15:09;9.88;;;4.57;;
43363;SDS011;40636;52.424;-1.948;2023-06-22T07:17:39;7.82;;;4.35;;
43363;SDS011;40636;52.424;-1.948;2023-06-22T07:20:09;6.45;;;3.88;;
43363;SDS011;40636;52.424;-1.948;2023-06-22T07:22:39;6.05;;;4.10;;
43363;SDS011;40636;52.424;-1.948;2023-06-22T07:25:11;7.15;;;4.18;;
43363;SDS011;40636;52.424;-1.948;2023-06-22T07:27:45;7.38;;;4.25;;
43363;SDS011;40636;52.424;-1.948;2023-06-22T07:30:22;7.55;;;4.85;;
43363;SDS011;40636;52.424;-1.948;2023-06-22T07:32:49;6.88;;;4.13;;
43363;SDS011;40636;52.424;-1.948;2023-06-22T07:35:16;7.68;;;4.88;;
43363;SDS011;40636;52.424;-1.948;2023-06-22T07:37:43;6.35;;;3.75;;
43363;SDS011;40636;52.424;-1.948;2023-06-22T07:40:10;7.25;;;4.30;;
43363;SDS011;40636;52.424;-1.948;2023-06-22T07:42:37;6.43;;;4.07;;
43363;SDS011;40636;52.424;-1.948;2023-06-22T07:45:04;7.20;;;4.00;;
43363;SDS011;40636;52.424;-1.948;2023-06-22T07:47:34;6.72;;;3.95;;
43363;SDS011;40636;52.424;-1.948;2023-06-22T07:50:02;6.82;;;3.65;;
43363;SDS011;40636;52.424;-1.948;2023-06-22T07:52:30;6.28;;;3.88;;
43363;SDS011;40636;52.424;-1.948;2023-06-22T07:54:57;7.93;;;3.25;;
43363;SDS011;40636;52.424;-1.948;2023-06-22T07:57:24;8.15;;;4.25;;
43363;SDS011;40636;52.424;-1.948;2023-06-22T08:00:00;8.52;;;3.92;;
43363;SDS011;40636;52.424;-1.948;2023-06-22T08:02:30;7.88;;;4.03;;
43363;SDS011;40636;52.424;-1.948;2023-06-22T08:04:57;9.32;;;3.50;;
43363;SDS011;40636;52.424;-1.948;2023-06-22T08:07:44;6.45;;;3.25;;
43363;SDS011;40636;52.424;-1.948;2023-06-22T08:10:13;7.07;;;3.53;;
43363;SDS011;40636;52.424;-1.948;2023-06-22T08:12:40;6.50;;;3.40;;
43363;SDS011;40636;52.424;-1.948;2023-06-22T08:15:08;5.97;;;3.60;;
43363;SDS011;40636;52.424;-1.948;2023-06-22T08:17:36;6.32;;;3.58;;
43363;SDS011;40636;52.424;-1.948;2023-06-22T08:20:05;7.05;;;3.67;;
43363;SDS011;40636;52.424;-1.948;2023-06-22T08:22:40;8.65;;;3.55;;
43363;SDS011;40636;52.424;-1.948;2023-06-22T08:25:14;6.30;;;4.05;;
43363;SDS011;40636;52.424;-1.948;2023-06-22T08:27:44;8.35;;;3.42;;
43363;SDS011;40636;52.424;-1.948;2023-06-22T08:30:12;5.57;;;3.60;;
43363;SDS011;40636;52.424;-1.948;2023-06-22T08:32:39;7.13;;;3.55;;
43363;SDS011;40636;52.424;-1.948;2023-06-22T08:35:06;5.80;;;3.50;;
43363;SDS011;40636;52.424;-1.948;2023-06-22T08:37:35;5.95;;;3.42;;
43363;SDS011;40636;52.424;-1.948;2023-06-22T08:40:03;8.45;;;3.40;;
43363;SDS011;40636;52.424;-1.948;2023-06-22T08:42:32;6.05;;;3.85;;
43363;SDS011;40636;52.424;-1.948;2023-06-22T08:44:59;5.93;;;3.28;;
43363;SDS011;40636;52.424;-1.948;2023-06-22T08:47:29;6.25;;;3.88;;
43363;SDS011;40636;52.424;-1.948;2023-06-22T08:50:07;6.07;;;4.13;;
43363;SDS011;40636;52.424;-1.948;2023-06-22T08:52:35;6.30;;;3.30;;
43363;SDS011;40636;52.424;-1.948;2023-06-22T08:55:03;5.35;;;3.13;;
43363;SDS011;40636;52.424;-1.948;2023-06-22T08:57:30;4.78;;;3.63;;
43363;SDS011;40636;52.424;-1.948;2023-06-22T08:59:59;6.55;;;3.85;;
43363;SDS011;40636;52.424;-1.948;2023-06-22T09:02:26;5.85;;;3.25;;
43363;SDS011;40636;52.424;-1.948;2023-06-22T09:04:57;6.95;;;3.63;;
43363;SDS011;40636;52.424;-1.948;2023-06-22T09:07:24;7.43;;;4.25;;
43363;SDS011;40636;52.424;-1.948;2023-06-22T09:09:52;7.40;;;4.35;;
43363;SDS011;40636;52.424;-1.948;2023-06-22T09:12:20;10.13;;;5.82;;
43363;SDS011;40636;52.424;-1.948;2023-06-22T09:14:51;6.60;;;4.15;;
43363;SDS011;40636;52.424;-1.948;2023-06-22T09:17:18;7.50;;;4.10;;
43363;SDS011;40636;52.424;-1.948;2023-06-22T09:19:45;7.35;;;4.50;;
43363;SDS011;40636;52.424;-1.948;2023-06-22T09:22:14;13.02;;;6.10;;
43363;SDS011;40636;52.424;-1.948;2023-06-22T09:24:41;9.57;;;4.53;;
43363;SDS011;40636;52.424;-1.948;2023-06-22T09:27:08;8.95;;;4.43;;
43363;SDS011;40636;52.424;-1.948;2023-06-22T09:29:34;5.38;;;3.83;;
43363;SDS011;40636;52.424;-1.948;2023-06-22T09:32:01;8.18;;;4.25;;
43363;SDS011;40636;52.424;-1.948;2023-06-22T09:34:28;6.32;;;3.85;;
43363;SDS011;40636;52.424;-1.948;2023-06-22T09:36:57;8.88;;;4.10;;
43363;SDS011;40636;52.424;-1.948;2023-06-22T09:39:27;5.57;;;3.15;;
43363;SDS011;40636;52.424;-1.948;2023-06-22T09:41:53;8.02;;;3.80;;
43363;SDS011;40636;52.424;-1.948;2023-06-22T09:44:20;6.93;;;4.35;;
43363;SDS011;40636;52.424;-1.948;2023-06-22T09:46:47;9.50;;;4.13;;
43363;SDS011;40636;52.424;-1.948;2023-06-22T09:49:14;6.68;;;2.90;;
43363;SDS011;40636;52.424;-1.948;2023-06-22T09:51:40;6.72;;;2.92;;
43363;SDS011;40636;52.424;-1.948;2023-06-22T09:54:07;6.72;;;4.40;;
43363;SDS011;40636;52.424;-1.948;2023-06-22T09:56:34;8.55;;;4.18;;
43363;SDS011;40636;52.424;-1.948;2023-06-22T09:59:01;5.15;;;3.58;;
43363;SDS011;40636;52.424;-1.948;2023-06-22T10:01:43;5.35;;;4.03;;
43363;SDS011;40636;52.424;-1.948;2023-06-22T10:04:10;6.95;;;4.15;;
43363;SDS011;40636;52.424;-1.948;2023-06-22T10:06:37;7.45;;;4.00;;
43363;SDS011;40636;52.424;-1.948;2023-06-22T10:09:07;9.10;;;4.00;;
43363;SDS011;40636;52.424;-1.948;2023-06-22T10:11:34;5.68;;;3.20;;
43363;SDS011;40636;52.424;-1.948;2023-06-22T10:14:02;6.60;;;3.80;;
43363;SDS011;40636;52.424;-1.948;2023-06-22T10:16:31;5.15;;;3.83;;
43363;SDS011;40636;52.424;-1.948;2023-06-22T10:18:58;4.88;;;2.95;;
43363;SDS011;40636;52.424;-1.948;2023-06-22T10:21:25;6.65;;;3.22;;
43363;SDS011;40636;52.424;-1.948;2023-06-22T10:23:54;5.32;;;2.75;;
43363;SDS011;40636;52.424;-1.948;2023-06-22T10:26:22;5.85;;;3.45;;
43363;SDS011;40636;52.424;-1.948;2023-06-22T10:28:49;5.50;;;2.65;;
43363;SDS011;40636;52.424;-1.948;2023-06-22T10:31:25;6.57;;;3.42;;
43363;SDS011;40636;52.424;-1.948;2023-06-22T10:33:54;5.28;;;3.03;;
43363;SDS011;40636;52.424;-1.948;2023-06-22T10:36:21;7.53;;;3.38;;
43363;SDS011;40636;52.424;-1.948;2023-06-22T10:38:49;6.25;;;3.78;;
43363;SDS011;40636;52.424;-1.948;2023-06-22T10:41:16;7.50;;;3.10;;
43363;SDS011;40636;52.424;-1.948;2023-06-22T10:43:43;5.78;;;3.78;;
43363;SDS011;40636;52.424;-1.948;2023-06-22T10:46:10;8.85;;;3.97;;
43363;SDS011;40636;52.424;-1.948;2023-06-22T10:48:37;5.80;;;3.67;;
43363;SDS011;40636;52.424;-1.948;2023-06-22T10:51:03;9.10;;;3.90;;
43363;SDS011;40636;52.424;-1.948;2023-06-22T10:53:31;8.10;;;3.58;;
43363;SDS011;40636;52.424;-1.948;2023-06-22T10:55:58;4.68;;;3.20;;
43363;SDS011;40636;52.424;-1.948;2023-06-22T10:58:26;8.10;;;3.80;;
43363;SDS011;40636;52.424;-1.948;2023-06-22T11:00:53;6.97;;;3.42;;
43363;SDS011;40636;52.424;-1.948;2023-06-22T11:03:19;6.40;;;3.25;;
43363;SDS011;40636;52.424;-1.948;2023-06-22T11:05:46;8.82;;;3.28;;
43363;SDS011;40636;52.424;-1.948;2023-06-22T11:08:14;6.38;;;3.10;;
43363;SDS011;40636;52.424;-1.948;2023-06-22T11:10:41;5.38;;;3.00;;
43363;SDS011;40636;52.424;-1.948;2023-06-22T11:13:09;7.18;;;3.95;;
43363;SDS011;40636;52.424;-1.948;2023-06-22T11:15:38;5.10;;;3.67;;
43363;SDS011;40636;52.424;-1.948;2023-06-22T11:18:05;6.68;;;4.15;;
43363;SDS011;40636;52.424;-1.948;2023-06-22T11:20:33;5.55;;;3.42;;
43363;SDS011;40636;52.424;-1.948;2023-06-22T11:23:05;5.57;;;3.60;;
43363;SDS011;40636;52.424;-1.948;2023-06-22T11:25:35;5.80;;;3.50;;
43363;SDS011;40636;52.424;-1.948;2023-06-22T11:28:02;5.40;;;3.15;;
43363;SDS011;40636;52.424;-1.948;2023-06-22T11:30:30;7.50;;;3.42;;
43363;SDS011;40636;52.424;-1.948;2023-06-22T11:32:58;7.43;;;4.70;;
43363;SDS011;40636;52.424;-1.948;2023-06-22T11:35:25;6.63;;;3.83;;
43363;SDS011;40636;52.424;-1.948;2023-06-22T11:37:52;8.45;;;4.78;;
43363;SDS011;40636;52.424;-1.948;2023-06-22T11:40:19;7.55;;;4.55;;
43363;SDS011;40636;52.424;-1.948;2023-06-22T11:42:46;6.30;;;3.78;;
43363;SDS011;40636;52.424;-1.948;2023-06-22T11:45:13;7.95;;;3.92;;
43363;SDS011;40636;52.424;-1.948;2023-06-22T11:47:40;7.15;;;4.18;;
43363;SDS011;40636;52.424;-1.948;2023-06-22T11:50:07;8.30;;;4.03;;
43363;SDS011;40636;52.424;-1.948;2023-06-22T11:52:34;5.97;;;3.90;;
43363;SDS011;40636;52.424;-1.948;2023-06-22T11:55:05;8.60;;;4.22;;
43363;SDS011;40636;52.424;-1.948;2023-06-22T11:57:35;8.70;;;4.25;;
43363;SDS011;40636;52.424;-1.948;2023-06-22T12:00:03;6.50;;;4.55;;
43363;SDS011;40636;52.424;-1.948;2023-06-22T12:02:55;5.68;;;4.15;;
43363;SDS011;40636;52.424;-1.948;2023-06-22T12:05:26;9.35;;;4.63;;
43363;SDS011;40636;52.424;-1.948;2023-06-22T12:07:53;9.80;;;4.53;;
43363;SDS011;40636;52.424;-1.948;2023-06-22T12:10:21;8.43;;;5.30;;
43363;SDS011;40636;52.424;-1.948;2023-06-22T12:12:49;8.98;;;4.53;;
43363;SDS011;40636;52.424;-1.948;2023-06-22T12:15:16;8.93;;;4.97;;
43363;SDS011;40636;52.424;-1.948;2023-06-22T12:17:43;7.93;;;4.60;;
43363;SDS011;40636;52.424;-1.948;2023-06-22T12:20:10;11.63;;;4.80;;
43363;SDS011;40636;52.424;-1.948;2023-06-22T12:22:37;9.50;;;5.53;;
43363;SDS011;40636;52.424;-1.948;2023-06-22T12:25:04;9.55;;;5.45;;
43363;SDS011;40636;52.424;-1.948;2023-06-22T12:27:31;10.43;;;4.57;;
43363;SDS011;40636;52.424;-1.948;2023-06-22T12:29:58;6.60;;;4.38;;
43363;SDS011;40636;52.424;-1.948;2023-06-22T12:32:25;7.40;;;4.53;;
43363;SDS011;40636;52.424;-1.948;2023-06-22T12:34:55;5.65;;;4.15;;
43363;SDS011;40636;52.424;-1.948;2023-06-22T12:37:31;5.93;;;3.90;;
43363;SDS011;40636;52.424;-1.948;2023-06-22T12:39:58;7.90;;;3.78;;
43363;SDS011;40636;52.424;-1.948;2023-06-22T12:42:26;5.60;;;3.38;;
43363;SDS011;40636;52.424;-1.948;2023-06-22T12:44:54;7.20;;;3.55;;
43363;SDS011;40636;52.424;-1.948;2023-06-22T12:47:21;5.00;;;3.28;;
43363;SDS011;40636;52.424;-1.948;2023-06-22T12:49:48;7.20;;;4.15;;
43363;SDS011;40636;52.424;-1.948;2023-06-22T12:52:15;5.63;;;3.65;;
43363;SDS011;40636;52.424;-1.948;2023-06-22T12:54:42;5.60;;;2.90;;
43363;SDS011;40636;52.424;-1.948;2023-06-22T12:57:20;6.20;;;3.03;;
43363;SDS011;40636;52.424;-1.948;2023-06-22T12:59:47;5.30;;;3.13;;
43363;SDS011;40636;52.424;-1.948;2023-06-22T13:02:14;8.20;;;3.75;;
43363;SDS011;40636;52.424;-1.948;2023-06-22T13:04:41;3.67;;;2.60;;
43363;SDS011;40636;52.424;-1.948;2023-06-22T13:07:09;5.57;;;3.17;;
43363;SDS011;40636;52.424;-1.948;2023-06-22T13:09:49;2.72;;;2.22;;
43363;SDS011;40636;52.424;-1.948;2023-06-22T13:12:19;3.35;;;2.20;;
43363;SDS011;40636;52.424;-1.948;2023-06-22T13:14:49;3.90;;;2.60;;
43363;SDS011;40636;52.424;-1.948;2023-06-22T13:17:16;3.40;;;2.30;;
43363;SDS011;40636;52.424;-1.948;2023-06-22T13:19:43;4.05;;;2.53;;
43363;SDS011;40636;52.424;-1.948;2023-06-22T13:22:26;5.72;;;2.75;;
43363;SDS011;40636;52.424;-1.948;2023-06-22T13:24:57;4.20;;;2.90;;
43363;SDS011;40636;52.424;-1.948;2023-06-22T13:27:25;5.00;;;3.15;;
43363;SDS011;40636;52.424;-1.948;2023-06-22T13:29:52;8.13;;;3.30;;
43363;SDS011;40636;52.424;-1.948;2023-06-22T13:32:19;3.90;;;3.00;;
43363;SDS011;40636;52.424;-1.948;2023-06-22T13:34:46;3.72;;;2.17;;
43363;SDS011;40636;52.424;-1.948;2023-06-22T13:37:13;4.75;;;2.85;;
43363;SDS011;40636;52.424;-1.948;2023-06-22T13:39:40;5.20;;;2.95;;
43363;SDS011;40636;52.424;-1.948;2023-06-22T13:42:07;6.55;;;2.90;;
43363;SDS011;40636;52.424;-1.948;2023-06-22T13:44:34;6.22;;;3.03;;
43363;SDS011;40636;52.424;-1.948;2023-06-22T13:47:01;3.80;;;2.88;;
43363;SDS011;40636;52.424;-1.948;2023-06-22T13:49:27;4.18;;;2.78;;
43363;SDS011;40636;52.424;-1.948;2023-06-22T13:51:54;4.05;;;2.90;;
43363;SDS011;40636;52.424;-1.948;2023-06-22T13:54:21;4.88;;;2.40;;
43363;SDS011;40636;52.424;-1.948;2023-06-22T13:56:51;5.38;;;3.35;;
43363;SDS011;40636;52.424;-1.948;2023-06-22T13:59:18;5.93;;;2.80;;
43363;SDS011;40636;52.424;-1.948;2023-06-22T14:01:46;4.50;;;2.97;;
43363;SDS011;40636;52.424;-1.948;2023-06-22T14:04:13;5.13;;;1.83;;
43363;SDS011;40636;52.424;-1.948;2023-06-22T14:06:40;3.78;;;2.10;;
43363;SDS011;40636;52.424;-1.948;2023-06-22T14:09:07;2.90;;;1.70;;
43363;SDS011;40636;52.424;-1.948;2023-06-22T14:11:33;2.63;;;1.63;;
43363;SDS011;40636;52.424;-1.948;2023-06-22T14:14:00;3.25;;;1.73;;
43363;SDS011;40636;52.424;-1.948;2023-06-22T14:16:27;3.20;;;1.58;;
43363;SDS011;40636;52.424;-1.948;2023-06-22T14:18:54;2.20;;;1.50;;
43363;SDS011;40636;52.424;-1.948;2023-06-22T14:21:23;2.33;;;1.45;;
43363;SDS011;40636;52.424;-1.948;2023-06-22T14:23:50;2.33;;;1.50;;
43363;SDS011;40636;52.424;-1.948;2023-06-22T14:26:18;1.80;;;1.45;;
43363;SDS011;40636;52.424;-1.948;2023-06-22T14:28:45;2.72;;;1.50;;
43363;SDS011;40636;52.424;-1.948;2023-06-22T14:31:14;2.22;;;1.70;;
43363;SDS011;40636;52.424;-1.948;2023-06-22T14:33:50;3.05;;;1.52;;
43363;SDS011;40636;52.424;-1.948;2023-06-22T14:36:17;2.65;;;1.70;;
43363;SDS011;40636;52.424;-1.948;2023-06-22T14:38:44;1.90;;;1.77;;
43363;SDS011;40636;52.424;-1.948;2023-06-22T14:41:13;3.00;;;1.50;;